createdAt,value
2018-04-09T00:01:40.181Z,15.50
2018-04-09T00:04:07.706Z,15.50
2018-04-09T00:06:35.364Z,15.50
2018-04-09T00:09:03.082Z,15.50
2018-04-09T00:11:30.873Z,15.40
2018-04-09T00:13:58.386Z,15.40
2018-04-09T00:16:26.741Z,15.20
2018-04-09T00:18:54.255Z,15.30
2018-04-09T00:21:21.779Z,15.20
2018-04-09T00:23:49.375Z,15.20
2018-04-09T00:26:17.139Z,15.20
2018-04-09T00:28:44.675Z,15.20
2018-04-09T00:31:12.359Z,15.30
2018-04-09T00:33:40.732Z,15.10
2018-04-09T00:36:08.390Z,15.00
2018-04-09T00:38:35.955Z,15.10
2018-04-09T00:41:03.489Z,15.20
2018-04-09T00:43:31.010Z,15.10
2018-04-09T00:45:58.511Z,15.00
2018-04-09T00:48:26.118Z,15.00
2018-04-09T00:50:53.890Z,14.90
2018-04-09T00:53:33.163Z,14.90
2018-04-09T00:56:00.749Z,14.90
2018-04-09T00:58:28.274Z,14.80
2018-04-09T01:00:55.995Z,14.90
2018-04-09T01:03:23.503Z,14.80
2018-04-09T01:05:51.012Z,14.80
2018-04-09T01:08:18.531Z,14.80
2018-04-09T01:10:46.324Z,14.80
2018-04-09T01:13:13.873Z,14.80
2018-04-09T01:15:41.422Z,14.70
2018-04-09T01:18:09.067Z,14.70
2018-04-09T01:20:36.568Z,14.70
2018-04-09T01:23:04.087Z,14.70
2018-04-09T01:25:31.600Z,14.80
2018-04-09T01:27:59.888Z,14.70
2018-04-09T01:30:27.414Z,14.70
2018-04-09T01:32:54.927Z,14.80
2018-04-09T01:35:22.522Z,14.70
2018-04-09T01:37:50.279Z,14.70
2018-04-09T01:40:17.815Z,14.70
2018-04-09T01:42:45.516Z,14.60
2018-04-09T01:45:13.055Z,14.60
2018-04-09T01:47:40.579Z,14.60
2018-04-09T01:50:08.332Z,14.50
2018-04-09T01:52:36.863Z,14.50
2018-04-09T01:55:04.389Z,14.50
2018-04-09T01:57:31.896Z,14.40
2018-04-09T01:59:59.536Z,14.30
2018-04-09T02:02:27.054Z,14.20
2018-04-09T02:04:54.564Z,14.20
2018-04-09T02:07:22.189Z,14.20
2018-04-09T02:09:49.744Z,14.10
2018-04-09T02:12:17.251Z,14.00
2018-04-09T02:14:44.772Z,14.10
2018-04-09T02:17:12.356Z,14.10
2018-04-09T02:19:41.375Z,14.00
2018-04-09T02:22:09.661Z,14.00
2018-04-09T02:24:37.221Z,14.00
2018-04-09T02:27:04.727Z,14.00
2018-04-09T02:29:32.254Z,14.00
2018-04-09T02:31:59.765Z,13.90
2018-04-09T02:34:27.315Z,13.90
2018-04-09T02:36:55.063Z,13.80
2018-04-09T02:39:22.591Z,13.90
2018-04-09T02:41:50.104Z,13.80
2018-04-09T02:44:17.616Z,13.80
2018-04-09T02:46:45.124Z,13.70
2018-04-09T02:49:12.660Z,13.70
2018-04-09T02:51:40.188Z,13.70
2018-04-09T02:54:07.699Z,13.60
2018-04-09T02:56:35.228Z,13.60
2018-04-09T02:59:02.794Z,13.70
2018-04-09T03:01:30.503Z,13.70
2018-04-09T03:03:58.032Z,13.60
2018-04-09T03:06:25.543Z,13.70
2018-04-09T03:08:53.239Z,13.70
2018-04-09T03:11:20.760Z,13.70
2018-04-09T03:13:48.453Z,13.60
2018-04-09T03:16:16.183Z,13.60
2018-04-09T03:18:43.920Z,13.70
2018-04-09T03:21:11.745Z,13.70
2018-04-09T03:23:39.252Z,13.70
2018-04-09T03:26:06.964Z,13.60
2018-04-09T03:28:34.479Z,13.60
2018-04-09T03:31:03.350Z,13.60
2018-04-09T03:33:30.862Z,13.50
2018-04-09T03:35:58.639Z,13.30
2018-04-09T03:38:26.368Z,13.30
2018-04-09T03:40:54.175Z,13.40
2018-04-09T03:43:21.921Z,13.40
2018-04-09T03:45:49.860Z,13.50
2018-04-09T03:48:17.364Z,13.40
2018-04-09T03:50:44.916Z,13.40
2018-04-09T03:53:12.680Z,13.40
2018-04-09T03:55:41.711Z,13.30
2018-04-09T03:58:09.416Z,13.30
2018-04-09T04:00:36.936Z,13.20
2018-04-09T04:03:04.459Z,13.20
2018-04-09T04:05:32.096Z,13.20
2018-04-09T04:07:59.616Z,13.30
2018-04-09T04:10:27.291Z,13.30
2018-04-09T04:12:54.829Z,13.30
2018-04-09T04:15:34.314Z,13.30
2018-04-09T04:18:27.599Z,13.30
2018-04-09T04:21:06.901Z,13.30
2018-04-09T04:23:34.417Z,13.30
2018-04-09T04:26:01.927Z,13.30
2018-04-09T04:28:29.472Z,13.20
2018-04-09T04:30:56.973Z,13.10
2018-04-09T04:33:24.496Z,13.10
2018-04-09T04:35:52.272Z,13.10
2018-04-09T04:38:19.791Z,13.00
2018-04-09T04:40:47.305Z,13.00
2018-04-09T04:43:14.818Z,13.10
2018-04-09T04:45:42.398Z,13.10
2018-04-09T04:48:09.900Z,13.10
2018-04-09T04:50:37.957Z,13.10
2018-04-09T04:53:05.459Z,13.10
2018-04-09T04:55:33.082Z,13.10
2018-04-09T04:58:00.601Z,13.10
2018-04-09T05:00:28.135Z,13.00
2018-04-09T05:02:56.006Z,13.10
2018-04-09T05:05:23.499Z,13.00
2018-04-09T05:07:51.011Z,13.00
2018-04-09T05:10:18.533Z,13.00
2018-04-09T05:12:46.267Z,12.90
2018-04-09T05:15:14.024Z,13.00
2018-04-09T05:17:41.544Z,13.00
2018-04-09T05:20:09.789Z,13.10
2018-04-09T05:22:37.322Z,13.10
2018-04-09T05:25:04.856Z,13.00
2018-04-09T05:27:32.529Z,13.00
2018-04-09T05:30:00.094Z,13.00
2018-04-09T05:32:27.744Z,13.00
2018-04-09T05:34:55.263Z,13.10
2018-04-09T05:37:22.972Z,13.10
2018-04-09T05:39:50.511Z,13.10
2018-04-09T05:42:18.012Z,13.20
2018-04-09T05:44:45.531Z,13.30
2018-04-09T05:47:13.074Z,13.30
2018-04-09T05:49:40.582Z,13.40
2018-04-09T05:52:08.114Z,13.40
2018-04-09T05:54:35.787Z,13.50
2018-04-09T05:57:03.422Z,13.50
2018-04-09T05:59:30.928Z,13.70
2018-04-09T06:01:58.461Z,13.70
2018-04-09T06:04:26.481Z,13.60
2018-04-09T06:06:53.984Z,13.60
2018-04-09T06:09:21.523Z,13.60
2018-04-09T06:11:49.691Z,13.60
2018-04-09T06:14:17.191Z,13.70
2018-04-09T06:16:44.735Z,13.70
2018-04-09T06:19:12.499Z,13.80
2018-04-09T06:21:40.274Z,13.90
2018-04-09T06:24:07.791Z,13.90
2018-04-09T06:26:35.306Z,13.90
2018-04-09T06:29:02.946Z,14.00
2018-04-09T06:31:30.712Z,14.00
2018-04-09T06:33:58.227Z,14.10
2018-04-09T06:36:25.892Z,14.60
2018-04-09T06:38:53.399Z,15.60
2018-04-09T06:41:20.912Z,15.20
2018-04-09T06:43:48.423Z,15.00
2018-04-09T06:46:16.032Z,14.80
2018-04-09T06:48:43.547Z,14.80
2018-04-09T06:51:11.068Z,14.90
2018-04-09T06:53:38.708Z,15.00
2018-04-09T06:56:06.221Z,15.00
2018-04-09T06:58:34.078Z,14.90
2018-04-09T07:01:01.593Z,14.90
2018-04-09T07:03:29.143Z,15.00
2018-04-09T07:05:56.659Z,15.10
2018-04-09T07:08:24.383Z,15.10
2018-04-09T07:10:52.601Z,15.10
2018-04-09T07:13:20.880Z,15.30
2018-04-09T07:15:48.626Z,15.30
2018-04-09T07:18:16.119Z,15.40
2018-04-09T07:20:43.824Z,15.40
2018-04-09T07:23:11.596Z,15.40
2018-04-09T07:25:39.124Z,15.40
2018-04-09T07:28:06.831Z,15.40
2018-04-09T07:30:34.334Z,15.50
2018-04-09T07:33:02.031Z,15.60
2018-04-09T07:35:29.555Z,15.60
2018-04-09T07:37:57.052Z,15.60
2018-04-09T07:40:24.715Z,15.70
2018-04-09T07:42:53.360Z,15.80
2018-04-09T07:45:20.891Z,15.90
2018-04-09T07:47:48.399Z,15.90
2018-04-09T07:50:15.910Z,15.90
2018-04-09T07:52:43.495Z,16.10
2018-04-09T07:55:11.002Z,16.30
2018-04-09T07:57:38.755Z,16.30
2018-04-09T08:00:06.384Z,16.30
2018-04-09T08:02:33.956Z,16.20
2018-04-09T08:05:02.651Z,16.30
2018-04-09T08:07:30.151Z,16.20
2018-04-09T08:09:57.875Z,16.10
2018-04-09T08:12:25.393Z,16.00
2018-04-09T08:14:52.899Z,15.90
2018-04-09T08:17:20.422Z,15.90
2018-04-09T08:19:47.960Z,15.80
2018-04-09T08:22:15.483Z,15.80
2018-04-09T08:24:43.016Z,16.00
2018-04-09T08:27:10.531Z,16.20
2018-04-09T08:29:38.044Z,16.20
2018-04-09T08:32:05.768Z,16.40
2018-04-09T08:34:33.360Z,16.40
2018-04-09T08:37:01.131Z,16.40
2018-04-09T08:39:28.650Z,16.50
2018-04-09T08:41:56.171Z,16.60
2018-04-09T08:44:24.436Z,16.80
2018-04-09T08:46:52.791Z,16.60
2018-04-09T08:49:20.558Z,16.60
2018-04-09T08:51:48.314Z,16.50
2018-04-09T08:54:15.815Z,16.70
2018-04-09T08:56:43.339Z,16.90
2018-04-09T08:59:10.857Z,17.10
2018-04-09T09:01:38.454Z,17.20
2018-04-09T09:04:05.928Z,17.00
2018-04-09T09:06:34.267Z,17.40
2018-04-09T09:09:01.772Z,17.30
2018-04-09T09:11:29.291Z,17.50
2018-04-09T09:13:56.968Z,17.70
2018-04-09T09:16:24.491Z,17.70
2018-04-09T09:18:52.724Z,17.70
2018-04-09T09:21:20.252Z,18.00
2018-04-09T09:23:47.751Z,18.00
2018-04-09T09:26:15.285Z,18.00
2018-04-09T09:28:43.154Z,18.00
2018-04-09T09:31:10.659Z,17.90
2018-04-09T09:33:38.179Z,18.00
2018-04-09T09:36:06.035Z,17.90
2018-04-09T09:38:33.549Z,17.90
2018-04-09T09:41:01.057Z,17.90
2018-04-09T09:43:28.642Z,18.10
2018-04-09T09:45:56.093Z,18.30
2018-04-09T09:48:24.305Z,18.50
2018-04-09T09:50:51.825Z,18.70
2018-04-09T09:53:19.483Z,18.70
2018-04-09T09:55:47.805Z,18.90
2018-04-09T09:58:15.479Z,18.90
2018-04-09T10:00:47.931Z,19.00
2018-04-09T10:03:21.007Z,19.10
2018-04-09T10:05:48.516Z,19.20
2018-04-09T10:08:16.055Z,19.20
2018-04-09T10:10:43.575Z,19.20
2018-04-09T10:13:11.282Z,19.20
2018-04-09T10:15:38.787Z,19.30
2018-04-09T10:18:06.308Z,19.40
2018-04-09T10:20:33.960Z,19.50
2018-04-09T10:23:01.481Z,19.40
2018-04-09T10:25:29.172Z,19.40
2018-04-09T10:27:56.734Z,19.50
2018-04-09T10:30:24.404Z,19.60
2018-04-09T10:32:51.919Z,19.70
2018-04-09T10:35:19.637Z,19.80
2018-04-09T10:37:47.910Z,19.70
2018-04-09T10:40:15.572Z,19.70
2018-04-09T10:42:43.195Z,19.80
2018-04-09T10:45:10.707Z,19.80
2018-04-09T10:47:38.422Z,19.90
2018-04-09T10:50:05.964Z,20.00
2018-04-09T10:52:33.503Z,20.00
2018-04-09T10:55:01.763Z,20.30
2018-04-09T10:57:29.503Z,20.20
2018-04-09T10:59:57.778Z,20.50
2018-04-09T11:02:25.315Z,20.50
2018-04-09T11:04:52.840Z,20.50
2018-04-09T11:07:20.543Z,20.40
2018-04-09T11:09:48.065Z,20.50
2018-04-09T11:12:15.588Z,20.60
2018-04-09T11:14:43.852Z,20.90
2018-04-09T11:17:11.369Z,20.90
2018-04-09T11:19:39.020Z,20.80
2018-04-09T11:22:06.815Z,20.80
2018-04-09T11:24:34.586Z,20.80
2018-04-09T11:27:02.088Z,20.50
2018-04-09T11:29:29.801Z,20.70
2018-04-09T11:31:57.376Z,21.00
2018-04-09T11:34:24.891Z,21.10
2018-04-09T11:36:52.419Z,21.20
2018-04-09T11:39:19.940Z,21.20
2018-04-09T11:41:48.362Z,21.10
2018-04-09T11:44:15.915Z,21.00
2018-04-09T11:46:44.188Z,21.10
2018-04-09T11:49:11.717Z,21.10
2018-04-09T11:51:39.214Z,20.90
2018-04-09T11:54:06.735Z,20.90
2018-04-09T11:56:34.256Z,21.10
2018-04-09T11:59:01.809Z,21.20
2018-04-09T12:01:29.494Z,21.30
2018-04-09T12:03:57.257Z,21.30
2018-04-09T12:06:24.765Z,21.30
2018-04-09T12:08:52.473Z,21.20
2018-04-09T12:11:20.250Z,21.20
2018-04-09T12:13:47.777Z,20.90
2018-04-09T12:16:15.436Z,21.00
2018-04-09T12:18:42.969Z,21.10
2018-04-09T12:21:10.665Z,21.10
2018-04-09T12:23:38.456Z,21.20
2018-04-09T12:26:06.208Z,21.30
2018-04-09T12:28:33.739Z,21.30
2018-04-09T12:31:01.375Z,21.40
2018-04-09T12:33:29.104Z,21.50
2018-04-09T12:35:56.630Z,21.50
2018-04-09T12:38:24.141Z,21.60
2018-04-09T12:40:52.397Z,21.80
2018-04-09T12:43:19.955Z,21.80
2018-04-09T12:45:47.706Z,21.60
2018-04-09T12:48:15.241Z,21.70
2018-04-09T12:50:42.902Z,21.70
2018-04-09T12:53:10.703Z,21.80
2018-04-09T12:55:39.710Z,21.80
2018-04-09T12:58:07.238Z,21.80
2018-04-09T13:00:34.896Z,21.90
2018-04-09T13:03:02.656Z,22.00
2018-04-09T13:05:30.412Z,21.80
2018-04-09T13:07:57.923Z,21.60
2018-04-09T13:10:25.461Z,21.60
2018-04-09T13:12:53.099Z,21.70
2018-04-09T13:15:20.638Z,21.90
2018-04-09T13:17:48.147Z,21.90
2018-04-09T13:20:16.420Z,21.70
2018-04-09T13:22:43.931Z,21.70
2018-04-09T13:25:11.441Z,21.80
2018-04-09T13:27:39.716Z,21.80
2018-04-09T13:30:07.433Z,21.70
2018-04-09T13:32:34.936Z,21.80
2018-04-09T13:35:02.448Z,21.90
2018-04-09T13:37:30.118Z,21.80
2018-04-09T13:39:57.876Z,21.80
2018-04-09T13:42:25.653Z,21.80
2018-04-09T13:44:53.178Z,21.80
2018-04-09T13:47:20.866Z,21.80
2018-04-09T13:49:48.626Z,21.80
2018-04-09T13:52:16.137Z,21.90
2018-04-09T13:54:43.760Z,22.10
2018-04-09T13:57:12.053Z,22.10
2018-04-09T13:59:39.690Z,22.10
2018-04-09T14:02:07.468Z,22.30
2018-04-09T14:04:36.489Z,22.20
2018-04-09T14:07:04.014Z,22.20
2018-04-09T14:09:32.270Z,22.10
2018-04-09T14:11:59.776Z,22.10
2018-04-09T14:14:27.493Z,22.20
2018-04-09T14:16:55.009Z,22.20
2018-04-09T14:19:22.732Z,22.20
2018-04-09T14:21:52.029Z,22.10
2018-04-09T14:24:21.563Z,22.30
2018-04-09T14:26:49.076Z,22.30
2018-04-09T14:29:16.942Z,22.30
2018-04-09T14:31:44.444Z,22.30
2018-04-09T14:34:12.772Z,22.30
2018-04-09T14:36:40.250Z,22.30
2018-04-09T14:39:07.899Z,22.30
2018-04-09T14:41:35.661Z,22.30
2018-04-09T14:44:03.179Z,22.30
2018-04-09T14:46:30.721Z,22.10
2018-04-09T14:48:59.013Z,21.70
2018-04-09T14:51:26.525Z,21.60
2018-04-09T14:53:54.145Z,21.70
2018-04-09T14:56:21.656Z,21.70
2018-04-09T14:58:49.160Z,21.70
2018-04-09T15:01:17.093Z,21.60
2018-04-09T15:03:44.604Z,21.50
2018-04-09T15:06:12.373Z,21.50
2018-04-09T15:08:39.885Z,21.40
2018-04-09T15:11:07.401Z,21.40
2018-04-09T15:13:35.027Z,21.40
2018-04-09T15:16:02.542Z,21.30
2018-04-09T15:18:30.246Z,21.40
2018-04-09T15:20:58.061Z,21.50
2018-04-09T15:23:25.799Z,21.40
2018-04-09T15:25:53.566Z,21.40
2018-04-09T15:28:21.353Z,21.40
2018-04-09T15:30:48.847Z,21.40
2018-04-09T15:33:17.422Z,21.30
2018-04-09T15:35:45.129Z,21.20
2018-04-09T15:38:12.693Z,21.20
2018-04-09T15:40:40.210Z,21.20
2018-04-09T15:43:07.881Z,21.20
2018-04-09T15:45:35.398Z,21.20
2018-04-09T15:48:03.142Z,21.20
2018-04-09T15:50:30.654Z,21.10
2018-04-09T15:52:58.354Z,21.20
2018-04-09T15:55:25.876Z,21.10
2018-04-09T15:57:53.441Z,21.00
2018-04-09T16:00:21.027Z,20.90
2018-04-09T16:02:48.534Z,20.80
2018-04-09T16:05:16.248Z,20.80
2018-04-09T16:07:43.753Z,20.90
2018-04-09T16:10:11.272Z,20.70
2018-04-09T16:12:38.923Z,20.70
2018-04-09T16:15:06.438Z,20.60
2018-04-09T16:20:28.184Z,20.30
2018-04-09T16:22:55.689Z,20.30
2018-04-09T16:25:23.620Z,20.20
2018-04-09T16:27:51.298Z,20.10
2018-04-09T16:30:18.840Z,20.20
2018-04-09T16:32:46.454Z,20.10
2018-04-09T16:35:15.206Z,20.10
2018-04-09T16:37:42.929Z,20.00
2018-04-09T16:40:11.383Z,19.90
2018-04-09T16:42:38.886Z,19.90
2018-04-09T16:45:06.395Z,19.70
2018-04-09T16:47:33.912Z,19.70
2018-04-09T16:50:01.427Z,19.60
2018-04-09T16:52:28.937Z,19.50
2018-04-09T16:54:56.705Z,19.50
2018-04-09T16:57:24.245Z,19.50
2018-04-09T16:59:51.937Z,19.50
2018-04-09T17:02:19.692Z,19.50
2018-04-09T17:04:47.201Z,19.40
2018-04-09T17:07:14.889Z,19.30
2018-04-09T17:09:42.401Z,19.20
2018-04-09T17:12:09.934Z,19.20
2018-04-09T17:14:37.592Z,19.20
2018-04-09T17:17:05.117Z,19.00
2018-04-09T17:19:32.744Z,19.00
2018-04-09T17:22:00.469Z,18.90
2018-04-09T17:24:27.988Z,18.80
2018-04-09T17:26:55.798Z,18.70
2018-04-09T17:29:24.012Z,18.80
2018-04-09T17:31:52.551Z,18.80
2018-04-09T17:34:20.076Z,18.70
2018-04-09T17:36:48.260Z,18.60
2018-04-09T17:39:16.273Z,18.60
2018-04-09T17:41:44.517Z,18.30
2018-04-09T17:44:12.298Z,18.30
2018-04-09T17:46:40.598Z,18.40
2018-04-09T17:49:08.098Z,18.40
2018-04-09T17:51:35.609Z,18.40
2018-04-09T17:54:04.403Z,18.40
2018-04-09T17:56:31.909Z,18.30
2018-04-09T17:58:59.801Z,18.20
2018-04-09T18:01:27.323Z,18.20
2018-04-09T18:03:54.830Z,18.30
2018-04-09T18:06:22.475Z,18.20
2018-04-09T18:08:49.996Z,18.00
2018-04-09T18:11:17.678Z,17.90
2018-04-09T18:13:45.465Z,18.00
2018-04-09T18:16:13.213Z,17.90
2018-04-09T18:18:40.722Z,17.80
2018-04-09T18:21:08.674Z,17.80
2018-04-09T18:23:36.950Z,17.50
2018-04-09T18:26:05.225Z,17.40
2018-04-09T18:28:32.966Z,17.40
2018-04-09T18:31:00.487Z,17.40
2018-04-09T18:33:27.997Z,17.40
2018-04-09T18:35:55.609Z,17.20
2018-04-09T18:38:23.407Z,17.10
2018-04-09T18:40:51.162Z,17.20
2018-04-09T18:43:18.746Z,17.30
2018-04-09T18:45:46.377Z,17.30
2018-04-09T18:48:13.917Z,17.10
2018-04-09T18:50:41.547Z,17.00
2018-04-09T18:53:09.061Z,16.80
2018-04-09T18:55:36.592Z,16.60
2018-04-09T18:58:05.206Z,16.70
2018-04-09T19:00:32.734Z,16.40
2018-04-09T19:03:00.397Z,16.40
2018-04-09T19:05:27.901Z,16.30
2018-04-09T19:07:55.416Z,16.40
2018-04-09T19:10:23.097Z,16.60
2018-04-09T19:12:50.632Z,16.80
2018-04-09T19:15:18.129Z,16.70
2018-04-09T19:17:45.793Z,16.70
2018-04-09T19:20:13.506Z,16.70
2018-04-09T19:22:41.025Z,16.80
2018-04-09T19:25:08.531Z,16.50
2018-04-09T19:27:36.086Z,16.30
2018-04-09T19:30:03.573Z,16.20
2018-04-09T19:32:31.121Z,16.40
2018-04-09T19:35:04.198Z,16.40
2018-04-09T19:37:37.489Z,16.60
2018-04-09T19:40:10.726Z,16.40
2018-04-09T19:42:38.246Z,16.30
2018-04-09T19:45:05.893Z,16.40
2018-04-09T19:47:33.433Z,16.40
2018-04-09T19:50:01.137Z,16.40
2018-04-09T19:52:28.657Z,16.40
2018-04-09T19:54:56.331Z,16.40
2018-04-09T19:57:23.855Z,16.40
2018-04-09T19:59:51.365Z,16.40
2018-04-09T20:02:18.901Z,16.50
2018-04-09T20:04:46.608Z,16.40
2018-04-09T20:07:14.119Z,16.10
2018-04-09T20:09:41.673Z,15.90
2018-04-09T20:12:09.485Z,16.00
2018-04-09T20:14:37.027Z,15.80
2018-04-09T20:17:04.543Z,15.60
2018-04-09T20:19:32.813Z,15.40
2018-04-09T20:22:00.930Z,15.40
2018-04-09T20:24:28.448Z,15.40
2018-04-09T20:26:56.741Z,15.40
2018-04-09T20:29:24.434Z,15.40
2018-04-09T20:31:51.945Z,15.30
2018-04-09T20:34:19.654Z,15.20
2018-04-09T20:36:47.424Z,15.30
2018-04-09T20:39:14.954Z,15.20
2018-04-09T20:41:42.478Z,15.10
2018-04-09T20:44:10.789Z,15.10
2018-04-09T20:46:38.305Z,15.00
2018-04-09T20:49:06.587Z,15.20
2018-04-09T20:51:34.319Z,15.20
2018-04-09T20:54:01.892Z,15.10
2018-04-09T20:56:29.413Z,15.10
2018-04-09T20:58:57.013Z,15.20
2018-04-09T21:01:24.510Z,15.10
2018-04-09T21:03:52.209Z,15.10
2018-04-09T21:06:19.763Z,14.90
2018-04-09T21:08:47.266Z,14.80
2018-04-09T21:11:15.547Z,14.80
2018-04-09T21:13:43.659Z,14.80
2018-04-09T21:16:11.164Z,15.00
2018-04-09T21:18:39.436Z,14.80
2018-04-09T21:21:07.137Z,14.80
2018-04-09T21:23:34.669Z,14.60
2018-04-09T21:26:02.197Z,14.60
2018-04-09T21:28:29.860Z,14.80
2018-04-09T21:30:57.473Z,14.60
2018-04-09T21:33:25.080Z,14.70
2018-04-09T21:35:52.641Z,14.60
2018-04-09T21:38:20.286Z,14.50
2018-04-09T21:40:47.888Z,14.50
2018-04-09T21:43:15.461Z,14.50
2018-04-09T21:45:42.994Z,14.70
2018-04-09T21:48:10.508Z,14.60
2018-04-09T21:50:38.033Z,14.70
2018-04-09T21:53:05.889Z,14.60
2018-04-09T21:55:33.455Z,14.90
2018-04-09T21:58:01.161Z,14.90
2018-04-09T22:00:28.677Z,14.80
2018-04-09T22:02:56.189Z,14.60
2018-04-09T22:05:23.709Z,14.60
2018-04-09T22:07:51.289Z,14.60
2018-04-09T22:10:19.058Z,14.70
2018-04-09T22:12:46.830Z,14.90
2018-04-09T22:15:14.582Z,14.80
2018-04-09T22:17:42.353Z,14.80
2018-04-09T22:20:09.877Z,14.70
2018-04-09T22:22:37.566Z,14.90
2018-04-09T22:25:05.330Z,14.80
2018-04-09T22:27:32.861Z,14.80
2018-04-09T22:30:00.550Z,14.70
2018-04-09T22:32:28.313Z,14.80
2018-04-09T22:34:55.830Z,14.80
2018-04-09T22:37:23.350Z,14.90
2018-04-09T22:39:50.881Z,14.90
2018-04-09T22:42:18.398Z,14.70
2018-04-09T22:44:46.209Z,14.60
2018-04-09T22:47:13.721Z,14.80
2018-04-09T22:49:41.432Z,14.70
2018-04-09T22:52:08.956Z,14.60
2018-04-09T22:54:36.662Z,14.50
2018-04-09T22:57:04.183Z,14.40
2018-04-09T22:59:31.702Z,14.50
2018-04-09T23:01:59.209Z,14.40
2018-04-09T23:04:26.724Z,14.40
2018-04-09T23:06:54.550Z,14.30
2018-04-09T23:09:22.073Z,14.50
2018-04-09T23:11:49.653Z,14.50
2018-04-09T23:14:17.226Z,14.30
2018-04-09T23:16:44.754Z,14.20
2018-04-09T23:19:12.441Z,14.20
2018-04-09T23:21:39.952Z,14.10
2018-04-09T23:24:07.649Z,14.20
2018-04-09T23:26:35.425Z,14.20
2018-04-09T23:29:02.964Z,14.30
2018-04-09T23:31:30.646Z,14.20
2018-04-09T23:33:58.161Z,14.10
2018-04-09T23:36:25.854Z,14.30
2018-04-09T23:38:53.372Z,14.40
2018-04-09T23:41:20.881Z,14.30
2018-04-09T23:43:48.398Z,14.30
2018-04-09T23:46:15.924Z,14.20
2018-04-09T23:48:43.451Z,14.30
2018-04-09T23:51:10.964Z,14.40
2018-04-09T23:53:38.547Z,14.40
2018-04-09T23:56:06.056Z,14.40
2018-04-09T23:58:33.572Z,14.40
